sensor_id;sensor_type;location;lat;lon;timestamp;temperature;humidity
21149;DHT22;10732;51.472;6.466;2024-01-10T00:01:49;-4.00;99.90
21149;DHT22;10732;51.472;6.466;2024-01-10T00:04:15;-4.10;99.90
21149;DHT22;10732;51.472;6.466;2024-01-10T00:06:42;-4.20;99.90
21149;DHT22;10732;51.472;6.466;2024-01-10T00:09:08;-4.20;99.90
21149;DHT22;10732;51.472;6.466;2024-01-10T00:11:34;-4.10;99.90
21149;DHT22;10732;51.472;6.466;2024-01-10T00:13:59;-4.20;99.90
21149;DHT22;10732;51.472;6.466;2024-01-10T00:16:28;-4.20;99.90
21149;DHT22;10732;51.472;6.466;2024-01-10T00:18:54;-4.30;99.90
21149;DHT22;10732;51.472;6.466;2024-01-10T00:21:19;-4.30;99.90
21149;DHT22;10732;51.472;6.466;2024-01-10T00:23:45;-4.30;99.90
21149;DHT22;10732;51.472;6.466;2024-01-10T00:26:10;-4.30;99.90
21149;DHT22;10732;51.472;6.466;2024-01-10T00:28:36;-4.30;99.90
21149;DHT22;10732;51.472;6.466;2024-01-10T00:31:02;-4.20;99.90
21149;DHT22;10732;51.472;6.466;2024-01-10T00:33:28;-4.30;99.90
21149;DHT22;10732;51.472;6.466;2024-01-10T00:35:53;-4.30;99.90
21149;DHT22;10732;51.472;6.466;2024-01-10T00:38:19;-4.30;99.90
21149;DHT22;10732;51.472;6.466;2024-01-10T00:40:44;-4.40;99.90
21149;DHT22;10732;51.472;6.466;2024-01-10T00:43:10;-4.40;99.90
21149;DHT22;10732;51.472;6.466;2024-01-10T00:45:36;-4.40;99.90
21149;DHT22;10732;51.472;6.466;2024-01-10T00:48:01;-4.40;99.90
21149;DHT22;10732;51.472;6.466;2024-01-10T00:50:27;-4.40;99.90
21149;DHT22;10732;51.472;6.466;2024-01-10T00:52:52;-4.40;99.90
21149;DHT22;10732;51.472;6.466;2024-01-10T00:55:18;-4.40;99.90
21149;DHT22;10732;51.472;6.466;2024-01-10T00:57:43;-4.50;99.90
21149;DHT22;10732;51.472;6.466;2024-01-10T01:00:09;-4.50;99.90
21149;DHT22;10732;51.472;6.466;2024-01-10T01:02:36;-4.50;99.90
21149;DHT22;10732;51.472;6.466;2024-01-10T01:05:05;-4.50;99.90
21149;DHT22;10732;51.472;6.466;2024-01-10T01:07:34;-4.50;99.90
21149;DHT22;10732;51.472;6.466;2024-01-10T01:10:00;-4.50;99.90
21149;DHT22;10732;51.472;6.466;2024-01-10T01:12:26;-4.40;99.90
21149;DHT22;10732;51.472;6.466;2024-01-10T01:14:51;-4.50;99.90
21149;DHT22;10732;51.472;6.466;2024-01-10T01:17:17;-4.50;99.90
21149;DHT22;10732;51.472;6.466;2024-01-10T01:19:43;-4.50;99.90
21149;DHT22;10732;51.472;6.466;2024-01-10T01:22:08;-4.50;99.90
21149;DHT22;10732;51.472;6.466;2024-01-10T01:24:34;-4.50;99.90
21149;DHT22;10732;51.472;6.466;2024-01-10T01:26:59;-4.50;99.90
21149;DHT22;10732;51.472;6.466;2024-01-10T01:29:25;-4.50;99.90
21149;DHT22;10732;51.472;6.466;2024-01-10T01:31:51;-4.50;99.90
21149;DHT22;10732;51.472;6.466;2024-01-10T01:34:17;-4.50;99.90
21149;DHT22;10732;51.472;6.466;2024-01-10T01:36:43;-4.50;99.90
21149;DHT22;10732;51.472;6.466;2024-01-10T01:39:08;-4.50;99.90
21149;DHT22;10732;51.472;6.466;2024-01-10T01:41:34;-4.50;99.90
21149;DHT22;10732;51.472;6.466;2024-01-10T01:43:59;-4.50;99.90
21149;DHT22;10732;51.472;6.466;2024-01-10T01:46:25;-4.60;99.90
21149;DHT22;10732;51.472;6.466;2024-01-10T01:48:51;-4.60;99.90
21149;DHT22;10732;51.472;6.466;2024-01-10T01:51:20;-4.60;99.90
21149;DHT22;10732;51.472;6.466;2024-01-10T01:53:48;-4.60;99.90
21149;DHT22;10732;51.472;6.466;2024-01-10T01:56:14;-4.60;99.90
21149;DHT22;10732;51.472;6.466;2024-01-10T01:58:42;-4.60;99.90
21149;DHT22;10732;51.472;6.466;2024-01-10T02:01:09;-4.60;99.90
21149;DHT22;10732;51.472;6.466;2024-01-10T02:03:36;-4.60;99.90
21149;DHT22;10732;51.472;6.466;2024-01-10T02:06:02;-4.60;99.90
21149;DHT22;10732;51.472;6.466;2024-01-10T02:08:33;-4.60;99.90
21149;DHT22;10732;51.472;6.466;2024-01-10T02:10:59;-4.60;99.90
21149;DHT22;10732;51.472;6.466;2024-01-10T02:13:26;-4.60;99.90
21149;DHT22;10732;51.472;6.466;2024-01-10T02:15:52;-4.70;99.90
21149;DHT22;10732;51.472;6.466;2024-01-10T02:18:17;-4.70;99.90
21149;DHT22;10732;51.472;6.466;2024-01-10T02:20:44;-4.60;99.90
21149;DHT22;10732;51.472;6.466;2024-01-10T02:23:13;-4.60;99.90
21149;DHT22;10732;51.472;6.466;2024-01-10T02:25:42;-4.70;99.90
21149;DHT22;10732;51.472;6.466;2024-01-10T02:28:07;-4.70;99.90
21149;DHT22;10732;51.472;6.466;2024-01-10T02:30:34;-4.70;99.90
21149;DHT22;10732;51.472;6.466;2024-01-10T02:33:00;-4.70;99.90
21149;DHT22;10732;51.472;6.466;2024-01-10T02:35:26;-4.70;99.90
21149;DHT22;10732;51.472;6.466;2024-01-10T02:37:52;-4.70;99.90
21149;DHT22;10732;51.472;6.466;2024-01-10T02:40:19;-4.80;99.90
21149;DHT22;10732;51.472;6.466;2024-01-10T02:42:45;-4.80;99.90
21149;DHT22;10732;51.472;6.466;2024-01-10T02:45:10;-4.80;99.90
21149;DHT22;10732;51.472;6.466;2024-01-10T02:47:36;-4.80;99.90
21149;DHT22;10732;51.472;6.466;2024-01-10T02:50:05;-4.90;99.90
21149;DHT22;10732;51.472;6.466;2024-01-10T02:52:31;-4.90;99.90
21149;DHT22;10732;51.472;6.466;2024-01-10T02:54:56;-4.90;99.90
21149;DHT22;10732;51.472;6.466;2024-01-10T02:57:22;-5.00;99.90
21149;DHT22;10732;51.472;6.466;2024-01-10T02:59:47;-5.00;99.90
21149;DHT22;10732;51.472;6.466;2024-01-10T03:02:13;-5.00;99.90
21149;DHT22;10732;51.472;6.466;2024-01-10T03:04:39;-5.10;99.90
21149;DHT22;10732;51.472;6.466;2024-01-10T03:07:04;-5.10;99.90
21149;DHT22;10732;51.472;6.466;2024-01-10T03:09:30;-5.10;99.90
21149;DHT22;10732;51.472;6.466;2024-01-10T03:11:55;-5.10;99.90
21149;DHT22;10732;51.472;6.466;2024-01-10T03:14:21;-5.10;99.90
21149;DHT22;10732;51.472;6.466;2024-01-10T03:16:47;-5.20;99.90
21149;DHT22;10732;51.472;6.466;2024-01-10T03:19:13;-5.20;99.90
21149;DHT22;10732;51.472;6.466;2024-01-10T03:21:39;-5.20;99.90
21149;DHT22;10732;51.472;6.466;2024-01-10T03:24:05;-5.20;99.90
21149;DHT22;10732;51.472;6.466;2024-01-10T03:26:30;-5.20;99.90
21149;DHT22;10732;51.472;6.466;2024-01-10T03:28:56;-5.20;99.90
21149;DHT22;10732;51.472;6.466;2024-01-10T03:31:22;-5.20;99.90
21149;DHT22;10732;51.472;6.466;2024-01-10T03:33:48;-5.20;99.90
21149;DHT22;10732;51.472;6.466;2024-01-10T03:36:18;-5.30;99.90
21149;DHT22;10732;51.472;6.466;2024-01-10T03:38:44;-5.30;99.90
21149;DHT22;10732;51.472;6.466;2024-01-10T03:41:17;-5.30;99.90
21149;DHT22;10732;51.472;6.466;2024-01-10T03:43:43;-5.40;99.90
21149;DHT22;10732;51.472;6.466;2024-01-10T03:46:09;-5.40;99.90
21149;DHT22;10732;51.472;6.466;2024-01-10T03:48:35;-5.40;99.90
21149;DHT22;10732;51.472;6.466;2024-01-10T03:51:01;-5.40;99.90
21149;DHT22;10732;51.472;6.466;2024-01-10T03:53:27;-5.50;99.90
21149;DHT22;10732;51.472;6.466;2024-01-10T03:55:52;-5.50;99.90
21149;DHT22;10732;51.472;6.466;2024-01-10T03:58:18;-5.50;99.90
21149;DHT22;10732;51.472;6.466;2024-01-10T04:00:43;-5.60;99.90
21149;DHT22;10732;51.472;6.466;2024-01-10T04:03:09;-5.60;99.90
21149;DHT22;10732;51.472;6.466;2024-01-10T04:05:34;-5.60;99.90
21149;DHT22;10732;51.472;6.466;2024-01-10T04:08:00;-5.60;99.90
21149;DHT22;10732;51.472;6.466;2024-01-10T04:10:25;-5.70;99.90
21149;DHT22;10732;51.472;6.466;2024-01-10T04:12:51;-5.70;99.90
21149;DHT22;10732;51.472;6.466;2024-01-10T04:15:16;-5.80;99.90
21149;DHT22;10732;51.472;6.466;2024-01-10T04:17:45;-5.80;99.90
21149;DHT22;10732;51.472;6.466;2024-01-10T04:20:10;-5.80;99.90
21149;DHT22;10732;51.472;6.466;2024-01-10T04:22:36;-5.80;99.90
21149;DHT22;10732;51.472;6.466;2024-01-10T04:25:06;-5.80;99.90
21149;DHT22;10732;51.472;6.466;2024-01-10T04:27:32;-5.80;99.90
21149;DHT22;10732;51.472;6.466;2024-01-10T04:29:58;-5.80;99.90
21149;DHT22;10732;51.472;6.466;2024-01-10T04:32:23;-5.80;99.90
21149;DHT22;10732;51.472;6.466;2024-01-10T04:34:49;-5.80;99.90
21149;DHT22;10732;51.472;6.466;2024-01-10T04:37:15;-5.70;99.90
21149;DHT22;10732;51.472;6.466;2024-01-10T04:39:41;-5.70;99.90
21149;DHT22;10732;51.472;6.466;2024-01-10T04:42:08;-5.60;99.90
21149;DHT22;10732;51.472;6.466;2024-01-10T04:44:34;-5.60;99.90
21149;DHT22;10732;51.472;6.466;2024-01-10T04:46:59;-5.60;99.90
21149;DHT22;10732;51.472;6.466;2024-01-10T04:49:25;-5.60;99.90
21149;DHT22;10732;51.472;6.466;2024-01-10T04:51:51;-5.60;99.90
21149;DHT22;10732;51.472;6.466;2024-01-10T04:54:16;-5.60;99.90
21149;DHT22;10732;51.472;6.466;2024-01-10T04:56:42;-5.60;99.90
21149;DHT22;10732;51.472;6.466;2024-01-10T04:59:08;-5.60;99.90
21149;DHT22;10732;51.472;6.466;2024-01-10T05:01:33;-5.60;99.90
21149;DHT22;10732;51.472;6.466;2024-01-10T05:03:59;-5.60;99.90
21149;DHT22;10732;51.472;6.466;2024-01-10T05:06:25;-5.60;99.90
21149;DHT22;10732;51.472;6.466;2024-01-10T05:08:50;-5.60;99.90
21149;DHT22;10732;51.472;6.466;2024-01-10T05:11:16;-5.60;99.90
21149;DHT22;10732;51.472;6.466;2024-01-10T05:13:45;-5.60;99.90
21149;DHT22;10732;51.472;6.466;2024-01-10T05:16:10;-5.60;99.90
21149;DHT22;10732;51.472;6.466;2024-01-10T05:18:36;-5.60;99.90
21149;DHT22;10732;51.472;6.466;2024-01-10T05:21:02;-5.70;99.90
21149;DHT22;10732;51.472;6.466;2024-01-10T05:23:29;-5.70;99.90
21149;DHT22;10732;51.472;6.466;2024-01-10T05:25:55;-5.70;99.90
21149;DHT22;10732;51.472;6.466;2024-01-10T05:28:20;-5.70;99.90
21149;DHT22;10732;51.472;6.466;2024-01-10T05:30:46;-5.70;99.90
21149;DHT22;10732;51.472;6.466;2024-01-10T05:33:12;-5.70;99.90
21149;DHT22;10732;51.472;6.466;2024-01-10T05:35:40;-5.70;99.90
21149;DHT22;10732;51.472;6.466;2024-01-10T05:38:06;-5.70;99.90
21149;DHT22;10732;51.472;6.466;2024-01-10T05:40:31;-5.70;99.90
21149;DHT22;10732;51.472;6.466;2024-01-10T05:42:58;-5.70;99.90
21149;DHT22;10732;51.472;6.466;2024-01-10T05:45:25;-5.60;99.90
21149;DHT22;10732;51.472;6.466;2024-01-10T05:47:51;-5.60;99.90
21149;DHT22;10732;51.472;6.466;2024-01-10T05:50:16;-5.60;99.90
21149;DHT22;10732;51.472;6.466;2024-01-10T05:52:42;-5.60;99.90
21149;DHT22;10732;51.472;6.466;2024-01-10T05:55:09;-5.60;99.90
21149;DHT22;10732;51.472;6.466;2024-01-10T05:57:38;-5.60;99.90
21149;DHT22;10732;51.472;6.466;2024-01-10T06:00:05;-5.50;99.90
21149;DHT22;10732;51.472;6.466;2024-01-10T06:02:44;-5.50;99.90
21149;DHT22;10732;51.472;6.466;2024-01-10T06:05:10;-5.50;99.90
21149;DHT22;10732;51.472;6.466;2024-01-10T06:07:37;-5.50;99.90
21149;DHT22;10732;51.472;6.466;2024-01-10T06:10:02;-5.50;99.90
21149;DHT22;10732;51.472;6.466;2024-01-10T06:12:28;-5.50;99.90
21149;DHT22;10732;51.472;6.466;2024-01-10T06:14:54;-5.50;99.90
21149;DHT22;10732;51.472;6.466;2024-01-10T06:17:20;-5.50;99.90
21149;DHT22;10732;51.472;6.466;2024-01-10T06:19:45;-5.50;99.90
21149;DHT22;10732;51.472;6.466;2024-01-10T06:22:11;-5.50;99.90
21149;DHT22;10732;51.472;6.466;2024-01-10T06:24:37;-5.50;99.90
21149;DHT22;10732;51.472;6.466;2024-01-10T06:27:03;-5.50;99.90
21149;DHT22;10732;51.472;6.466;2024-01-10T06:29:29;-5.50;99.90
21149;DHT22;10732;51.472;6.466;2024-01-10T06:31:55;-5.50;99.90
21149;DHT22;10732;51.472;6.466;2024-01-10T06:34:21;-5.50;99.90
21149;DHT22;10732;51.472;6.466;2024-01-10T06:36:47;-5.60;99.90
21149;DHT22;10732;51.472;6.466;2024-01-10T06:39:13;-5.60;99.90
21149;DHT22;10732;51.472;6.466;2024-01-10T06:41:39;-5.60;99.90
21149;DHT22;10732;51.472;6.466;2024-01-10T06:44:04;-5.60;99.90
21149;DHT22;10732;51.472;6.466;2024-01-10T06:46:31;-5.50;99.90
21149;DHT22;10732;51.472;6.466;2024-01-10T06:48:57;-5.50;99.90
21149;DHT22;10732;51.472;6.466;2024-01-10T06:51:23;-5.50;99.90
21149;DHT22;10732;51.472;6.466;2024-01-10T06:53:48;-5.50;99.90
21149;DHT22;10732;51.472;6.466;2024-01-10T06:56:14;-5.60;99.90
21149;DHT22;10732;51.472;6.466;2024-01-10T06:58:40;-5.70;99.90
21149;DHT22;10732;51.472;6.466;2024-01-10T07:01:11;-5.60;99.90
21149;DHT22;10732;51.472;6.466;2024-01-10T07:03:39;-5.60;99.90
21149;DHT22;10732;51.472;6.466;2024-01-10T07:06:05;-5.60;99.90
21149;DHT22;10732;51.472;6.466;2024-01-10T07:08:30;-5.60;99.90
21149;DHT22;10732;51.472;6.466;2024-01-10T07:10:56;-5.60;99.90
21149;DHT22;10732;51.472;6.466;2024-01-10T07:13:22;-5.60;99.90
21149;DHT22;10732;51.472;6.466;2024-01-10T07:15:48;-5.60;99.90
21149;DHT22;10732;51.472;6.466;2024-01-10T07:18:16;-5.60;99.90
21149;DHT22;10732;51.472;6.466;2024-01-10T07:20:42;-5.60;99.90
21149;DHT22;10732;51.472;6.466;2024-01-10T07:23:07;-5.60;99.90
21149;DHT22;10732;51.472;6.466;2024-01-10T07:25:33;-5.60;99.90
21149;DHT22;10732;51.472;6.466;2024-01-10T07:27:59;-5.50;99.90
21149;DHT22;10732;51.472;6.466;2024-01-10T07:30:25;-5.50;99.90
21149;DHT22;10732;51.472;6.466;2024-01-10T07:32:50;-5.50;99.90
21149;DHT22;10732;51.472;6.466;2024-01-10T07:35:16;-5.50;99.90
21149;DHT22;10732;51.472;6.466;2024-01-10T07:37:42;-5.50;99.90
21149;DHT22;10732;51.472;6.466;2024-01-10T07:40:09;-5.50;99.90
21149;DHT22;10732;51.472;6.466;2024-01-10T07:42:36;-5.60;99.90
21149;DHT22;10732;51.472;6.466;2024-01-10T07:45:03;-5.60;99.90
21149;DHT22;10732;51.472;6.466;2024-01-10T07:47:30;-5.60;99.90
21149;DHT22;10732;51.472;6.466;2024-01-10T07:49:57;-5.60;99.90
21149;DHT22;10732;51.472;6.466;2024-01-10T07:52:22;-5.60;99.90
21149;DHT22;10732;51.472;6.466;2024-01-10T07:54:48;-5.50;99.90
21149;DHT22;10732;51.472;6.466;2024-01-10T07:57:13;-5.50;99.90
21149;DHT22;10732;51.472;6.466;2024-01-10T07:59:39;-5.50;99.90
21149;DHT22;10732;51.472;6.466;2024-01-10T08:02:05;-5.40;99.90
21149;DHT22;10732;51.472;6.466;2024-01-10T08:04:30;-5.40;99.90
21149;DHT22;10732;51.472;6.466;2024-01-10T08:06:56;-5.40;99.90
21149;DHT22;10732;51.472;6.466;2024-01-10T08:09:22;-5.30;99.90
21149;DHT22;10732;51.472;6.466;2024-01-10T08:11:49;-5.30;99.90
21149;DHT22;10732;51.472;6.466;2024-01-10T08:14:15;-5.30;99.90
21149;DHT22;10732;51.472;6.466;2024-01-10T08:16:41;-5.10;99.90
21149;DHT22;10732;51.472;6.466;2024-01-10T08:19:07;-5.10;99.90
21149;DHT22;10732;51.472;6.466;2024-01-10T08:21:33;-4.90;99.90
21149;DHT22;10732;51.472;6.466;2024-01-10T08:23:59;-4.60;99.90
21149;DHT22;10732;51.472;6.466;2024-01-10T08:26:25;-3.90;99.90
21149;DHT22;10732;51.472;6.466;2024-01-10T08:28:52;-3.30;99.90
21149;DHT22;10732;51.472;6.466;2024-01-10T08:31:18;-3.10;99.90
21149;DHT22;10732;51.472;6.466;2024-01-10T08:33:43;-3.60;99.90
21149;DHT22;10732;51.472;6.466;2024-01-10T08:36:09;-3.70;99.90
21149;DHT22;10732;51.472;6.466;2024-01-10T08:38:38;-4.00;99.90
21149;DHT22;10732;51.472;6.466;2024-01-10T08:41:04;-4.20;99.90
21149;DHT22;10732;51.472;6.466;2024-01-10T08:43:29;-4.20;99.90
21149;DHT22;10732;51.472;6.466;2024-01-10T08:45:56;-4.30;99.90
21149;DHT22;10732;51.472;6.466;2024-01-10T08:48:23;-4.40;99.90
21149;DHT22;10732;51.472;6.466;2024-01-10T08:50:48;-4.30;99.90
21149;DHT22;10732;51.472;6.466;2024-01-10T08:53:14;-4.20;99.90
21149;DHT22;10732;51.472;6.466;2024-01-10T08:55:41;-4.30;99.90
21149;DHT22;10732;51.472;6.466;2024-01-10T08:58:07;-4.20;99.90
21149;DHT22;10732;51.472;6.466;2024-01-10T09:00:32;-4.20;99.90
21149;DHT22;10732;51.472;6.466;2024-01-10T09:03:00;-4.20;99.90
21149;DHT22;10732;51.472;6.466;2024-01-10T09:05:25;-4.00;99.90
21149;DHT22;10732;51.472;6.466;2024-01-10T09:07:51;-3.90;99.90
21149;DHT22;10732;51.472;6.466;2024-01-10T09:10:19;-3.80;99.90
21149;DHT22;10732;51.472;6.466;2024-01-10T09:12:44;-3.50;99.90
21149;DHT22;10732;51.472;6.466;2024-01-10T09:15:12;-2.20;99.90
21149;DHT22;10732;51.472;6.466;2024-01-10T09:17:42;-0.80;99.90
21149;DHT22;10732;51.472;6.466;2024-01-10T09:20:08;-0.40;99.90
21149;DHT22;10732;51.472;6.466;2024-01-10T09:22:34;-0.20;99.90
21149;DHT22;10732;51.472;6.466;2024-01-10T09:24:59;0.90;99.90
21149;DHT22;10732;51.472;6.466;2024-01-10T09:27:35;0.30;99.90
21149;DHT22;10732;51.472;6.466;2024-01-10T09:30:04;0.60;99.90
21149;DHT22;10732;51.472;6.466;2024-01-10T09:32:35;0.20;99.90
21149;DHT22;10732;51.472;6.466;2024-01-10T09:35:02;0.80;99.90
21149;DHT22;10732;51.472;6.466;2024-01-10T09:37:27;0.50;99.90
21149;DHT22;10732;51.472;6.466;2024-01-10T09:39:53;0.50;99.90
21149;DHT22;10732;51.472;6.466;2024-01-10T09:42:19;1.10;99.90
21149;DHT22;10732;51.472;6.466;2024-01-10T09:44:53;1.50;99.90
21149;DHT22;10732;51.472;6.466;2024-01-10T09:47:20;1.50;99.90
21149;DHT22;10732;51.472;6.466;2024-01-10T09:49:46;1.30;99.90
21149;DHT22;10732;51.472;6.466;2024-01-10T09:52:20;0.80;99.90
21149;DHT22;10732;51.472;6.466;2024-01-10T09:54:48;1.60;99.90
21149;DHT22;10732;51.472;6.466;2024-01-10T09:57:16;1.80;99.90
21149;DHT22;10732;51.472;6.466;2024-01-10T09:59:42;1.40;99.90
21149;DHT22;10732;51.472;6.466;2024-01-10T10:02:09;1.40;99.90
21149;DHT22;10732;51.472;6.466;2024-01-10T10:04:35;2.10;99.90
21149;DHT22;10732;51.472;6.466;2024-01-10T10:07:02;2.20;99.90
21149;DHT22;10732;51.472;6.466;2024-01-10T10:09:28;2.70;99.90
21149;DHT22;10732;51.472;6.466;2024-01-10T10:11:55;3.90;99.90
21149;DHT22;10732;51.472;6.466;2024-01-10T10:14:21;3.10;99.90
21149;DHT22;10732;51.472;6.466;2024-01-10T10:16:47;2.80;99.90
21149;DHT22;10732;51.472;6.466;2024-01-10T10:19:22;2.60;99.90
21149;DHT22;10732;51.472;6.466;2024-01-10T10:21:48;2.60;99.90
21149;DHT22;10732;51.472;6.466;2024-01-10T10:24:14;2.90;99.90
21149;DHT22;10732;51.472;6.466;2024-01-10T10:26:39;2.60;99.90
21149;DHT22;10732;51.472;6.466;2024-01-10T10:29:06;2.70;99.90
21149;DHT22;10732;51.472;6.466;2024-01-10T10:31:32;3.70;99.90
21149;DHT22;10732;51.472;6.466;2024-01-10T10:34:00;3.20;99.90
21149;DHT22;10732;51.472;6.466;2024-01-10T10:36:26;2.70;99.90
21149;DHT22;10732;51.472;6.466;2024-01-10T10:38:52;2.60;99.90
21149;DHT22;10732;51.472;6.466;2024-01-10T10:41:18;3.00;99.90
21149;DHT22;10732;51.472;6.466;2024-01-10T10:43:44;3.10;99.90
21149;DHT22;10732;51.472;6.466;2024-01-10T10:46:11;3.20;99.90
21149;DHT22;10732;51.472;6.466;2024-01-10T10:48:40;3.00;99.90
21149;DHT22;10732;51.472;6.466;2024-01-10T10:51:15;2.70;99.90
21149;DHT22;10732;51.472;6.466;2024-01-10T10:53:43;2.10;99.90
21149;DHT22;10732;51.472;6.466;2024-01-10T10:56:12;2.20;99.90
21149;DHT22;10732;51.472;6.466;2024-01-10T10:58:44;2.70;99.90
21149;DHT22;10732;51.472;6.466;2024-01-10T11:01:11;3.70;99.90
21149;DHT22;10732;51.472;6.466;2024-01-10T11:03:39;2.90;99.90
21149;DHT22;10732;51.472;6.466;2024-01-10T11:06:12;2.80;99.90
21149;DHT22;10732;51.472;6.466;2024-01-10T11:08:45;3.70;99.90
21149;DHT22;10732;51.472;6.466;2024-01-10T11:16:40;4.50;99.90
21149;DHT22;10732;51.472;6.466;2024-01-10T11:22:00;4.10;99.90
21149;DHT22;10732;51.472;6.466;2024-01-10T11:24:29;4.50;99.90
21149;DHT22;10732;51.472;6.466;2024-01-10T11:27:14;3.50;99.90
21149;DHT22;10732;51.472;6.466;2024-01-10T11:29:41;4.50;99.90
21149;DHT22;10732;51.472;6.466;2024-01-10T11:32:13;4.10;99.90
21149;DHT22;10732;51.472;6.466;2024-01-10T11:34:50;4.00;99.90
21149;DHT22;10732;51.472;6.466;2024-01-10T11:37:15;3.90;99.90
21149;DHT22;10732;51.472;6.466;2024-01-10T11:39:42;4.40;99.90
21149;DHT22;10732;51.472;6.466;2024-01-10T11:42:09;3.80;99.90
21149;DHT22;10732;51.472;6.466;2024-01-10T11:44:47;3.80;99.90
21149;DHT22;10732;51.472;6.466;2024-01-10T11:47:17;3.80;99.90
21149;DHT22;10732;51.472;6.466;2024-01-10T11:49:58;3.30;99.90
21149;DHT22;10732;51.472;6.466;2024-01-10T11:52:27;3.90;99.90
21149;DHT22;10732;51.472;6.466;2024-01-10T11:54:57;3.50;99.90
21149;DHT22;10732;51.472;6.466;2024-01-10T11:57:26;3.00;99.90
21149;DHT22;10732;51.472;6.466;2024-01-10T11:59:54;3.20;99.90
21149;DHT22;10732;51.472;6.466;2024-01-10T12:02:21;4.00;99.90
21149;DHT22;10732;51.472;6.466;2024-01-10T12:04:47;4.30;99.90
21149;DHT22;10732;51.472;6.466;2024-01-10T12:07:14;3.90;99.90
21149;DHT22;10732;51.472;6.466;2024-01-10T12:09:40;3.30;99.90
21149;DHT22;10732;51.472;6.466;2024-01-10T12:12:06;3.50;99.90
21149;DHT22;10732;51.472;6.466;2024-01-10T12:14:31;2.70;99.90
21149;DHT22;10732;51.472;6.466;2024-01-10T12:16:58;2.40;99.90
21149;DHT22;10732;51.472;6.466;2024-01-10T12:19:24;2.40;99.90
21149;DHT22;10732;51.472;6.466;2024-01-10T12:21:49;2.40;99.90
21149;DHT22;10732;51.472;6.466;2024-01-10T12:24:15;2.20;99.90
21149;DHT22;10732;51.472;6.466;2024-01-10T12:26:47;1.70;99.90
21149;DHT22;10732;51.472;6.466;2024-01-10T12:29:13;1.20;99.90
21149;DHT22;10732;51.472;6.466;2024-01-10T12:31:42;1.00;99.90
21149;DHT22;10732;51.472;6.466;2024-01-10T12:34:09;0.60;99.90
21149;DHT22;10732;51.472;6.466;2024-01-10T12:36:35;0.30;99.90
21149;DHT22;10732;51.472;6.466;2024-01-10T12:39:01;0.30;99.90
21149;DHT22;10732;51.472;6.466;2024-01-10T12:41:26;0.50;99.90
21149;DHT22;10732;51.472;6.466;2024-01-10T12:43:53;0.60;99.90
21149;DHT22;10732;51.472;6.466;2024-01-10T12:46:20;0.60;99.90
21149;DHT22;10732;51.472;6.466;2024-01-10T12:49:01;0.40;99.90
21149;DHT22;10732;51.472;6.466;2024-01-10T12:51:29;0.40;99.90
21149;DHT22;10732;51.472;6.466;2024-01-10T12:53:55;0.40;99.90
21149;DHT22;10732;51.472;6.466;2024-01-10T12:56:23;0.40;99.90
21149;DHT22;10732;51.472;6.466;2024-01-10T12:58:49;0.30;99.90
21149;DHT22;10732;51.472;6.466;2024-01-10T13:01:15;0.30;99.90
21149;DHT22;10732;51.472;6.466;2024-01-10T13:03:40;0.40;99.90
21149;DHT22;10732;51.472;6.466;2024-01-10T13:06:06;0.20;99.90
21149;DHT22;10732;51.472;6.466;2024-01-10T13:08:32;0.30;99.90
21149;DHT22;10732;51.472;6.466;2024-01-10T13:10:58;0.30;99.90
21149;DHT22;10732;51.472;6.466;2024-01-10T13:13:25;0.40;99.90
21149;DHT22;10732;51.472;6.466;2024-01-10T13:15:50;0.50;99.90
21149;DHT22;10732;51.472;6.466;2024-01-10T13:18:16;0.50;99.90
21149;DHT22;10732;51.472;6.466;2024-01-10T13:20:42;0.50;99.90
21149;DHT22;10732;51.472;6.466;2024-01-10T13:23:08;0.60;99.90
21149;DHT22;10732;51.472;6.466;2024-01-10T13:25:34;0.50;99.90
21149;DHT22;10732;51.472;6.466;2024-01-10T13:28:00;0.50;99.90
21149;DHT22;10732;51.472;6.466;2024-01-10T13:30:26;0.50;99.90
21149;DHT22;10732;51.472;6.466;2024-01-10T13:32:52;0.60;99.90
21149;DHT22;10732;51.472;6.466;2024-01-10T13:35:18;0.60;99.90
21149;DHT22;10732;51.472;6.466;2024-01-10T13:37:46;0.60;99.90
21149;DHT22;10732;51.472;6.466;2024-01-10T13:40:12;0.50;99.90
21149;DHT22;10732;51.472;6.466;2024-01-10T13:42:38;0.50;99.90
21149;DHT22;10732;51.472;6.466;2024-01-10T13:45:08;0.40;99.90
21149;DHT22;10732;51.472;6.466;2024-01-10T13:47:36;0.50;99.90
21149;DHT22;10732;51.472;6.466;2024-01-10T13:50:03;0.50;99.90
21149;DHT22;10732;51.472;6.466;2024-01-10T13:52:29;0.30;99.90
21149;DHT22;10732;51.472;6.466;2024-01-10T13:54:55;0.40;99.90
21149;DHT22;10732;51.472;6.466;2024-01-10T13:57:21;0.50;99.90
21149;DHT22;10732;51.472;6.466;2024-01-10T13:59:47;0.50;99.90
21149;DHT22;10732;51.472;6.466;2024-01-10T14:02:13;0.50;99.90
21149;DHT22;10732;51.472;6.466;2024-01-10T14:04:39;0.50;99.90
21149;DHT22;10732;51.472;6.466;2024-01-10T14:07:05;0.30;99.90
21149;DHT22;10732;51.472;6.466;2024-01-10T14:09:31;0.30;99.90
21149;DHT22;10732;51.472;6.466;2024-01-10T14:11:57;0.20;99.90
21149;DHT22;10732;51.472;6.466;2024-01-10T14:14:22;0.10;99.90
21149;DHT22;10732;51.472;6.466;2024-01-10T14:16:48;0.10;99.90
21149;DHT22;10732;51.472;6.466;2024-01-10T14:19:15;0.10;99.90
21149;DHT22;10732;51.472;6.466;2024-01-10T14:21:44;0.00;99.90
21149;DHT22;10732;51.472;6.466;2024-01-10T14:24:11;0.00;99.90
21149;DHT22;10732;51.472;6.466;2024-01-10T14:26:36;0.00;99.90
21149;DHT22;10732;51.472;6.466;2024-01-10T14:29:02;0.10;99.90
21149;DHT22;10732;51.472;6.466;2024-01-10T14:31:28;0.00;99.90
21149;DHT22;10732;51.472;6.466;2024-01-10T14:33:53;0.10;99.90
21149;DHT22;10732;51.472;6.466;2024-01-10T14:36:20;0.00;99.90
21149;DHT22;10732;51.472;6.466;2024-01-10T14:38:46;0.10;99.90
21149;DHT22;10732;51.472;6.466;2024-01-10T14:41:12;0.00;99.90
21149;DHT22;10732;51.472;6.466;2024-01-10T14:43:37;-0.10;99.90
21149;DHT22;10732;51.472;6.466;2024-01-10T14:46:03;0.00;99.90
21149;DHT22;10732;51.472;6.466;2024-01-10T14:48:31;-0.10;99.90
21149;DHT22;10732;51.472;6.466;2024-01-10T14:50:57;-0.10;99.90
21149;DHT22;10732;51.472;6.466;2024-01-10T14:53:22;-0.20;99.90
21149;DHT22;10732;51.472;6.466;2024-01-10T14:55:48;-0.10;99.90
21149;DHT22;10732;51.472;6.466;2024-01-10T14:58:13;-0.10;99.90
21149;DHT22;10732;51.472;6.466;2024-01-10T15:00:40;-0.20;99.90
21149;DHT22;10732;51.472;6.466;2024-01-10T15:03:08;-0.20;99.90
21149;DHT22;10732;51.472;6.466;2024-01-10T15:05:34;-0.20;99.90
21149;DHT22;10732;51.472;6.466;2024-01-10T15:08:00;-0.20;99.90
21149;DHT22;10732;51.472;6.466;2024-01-10T15:10:27;-0.20;99.90
21149;DHT22;10732;51.472;6.466;2024-01-10T15:12:53;-0.20;99.90
21149;DHT22;10732;51.472;6.466;2024-01-10T15:15:18;-0.20;99.90
21149;DHT22;10732;51.472;6.466;2024-01-10T15:17:44;-0.30;99.90
21149;DHT22;10732;51.472;6.466;2024-01-10T15:20:10;-0.30;99.90
21149;DHT22;10732;51.472;6.466;2024-01-10T15:22:35;-0.40;99.90
21149;DHT22;10732;51.472;6.466;2024-01-10T15:25:04;-0.40;99.90
21149;DHT22;10732;51.472;6.466;2024-01-10T15:27:30;-0.50;99.90
21149;DHT22;10732;51.472;6.466;2024-01-10T15:29:56;-0.50;99.90
21149;DHT22;10732;51.472;6.466;2024-01-10T15:32:21;-0.60;99.90
21149;DHT22;10732;51.472;6.466;2024-01-10T15:34:47;-0.60;99.90
21149;DHT22;10732;51.472;6.466;2024-01-10T15:37:12;-0.70;99.90
21149;DHT22;10732;51.472;6.466;2024-01-10T15:39:40;-0.80;99.90